sensor_id;sensor_type;location;lat;lon;timestamp;pressure;altitude;pressure_sealevel;temperature;humidity
40502;BME280;29631;49.168;9.848;2022-08-19T00:01:36;96123.97;;;27.56;82.30
40502;BME280;29631;49.168;9.848;2022-08-19T00:04:12;96112.19;;;27.52;82.37
40502;BME280;29631;49.168;9.848;2022-08-19T00:06:41;96130.19;;;27.57;82.25
40502;BME280;29631;49.168;9.848;2022-08-19T00:09:11;96132.13;;;27.65;82.29
40502;BME280;29631;49.168;9.848;2022-08-19T00:11:37;96121.44;;;27.60;82.41
40502;BME280;29631;49.168;9.848;2022-08-19T00:14:06;96131.16;;;27.61;82.68
40502;BME280;29631;49.168;9.848;2022-08-19T00:16:32;96108.69;;;27.52;82.52
40502;BME280;29631;49.168;9.848;2022-08-19T00:18:58;96133.88;;;27.61;82.35
40502;BME280;29631;49.168;9.848;2022-08-19T00:21:25;96134.78;;;27.56;82.67
40502;BME280;29631;49.168;9.848;2022-08-19T00:23:53;96127.38;;;27.45;82.80
40502;BME280;29631;49.168;9.848;2022-08-19T00:26:20;96123.41;;;27.34;82.83
40502;BME280;29631;49.168;9.848;2022-08-19T00:28:46;96156.69;;;27.43;82.93
40502;BME280;29631;49.168;9.848;2022-08-19T00:31:12;96142.06;;;27.27;83.02
40502;BME280;29631;49.168;9.848;2022-08-19T00:33:38;96174.22;;;27.37;83.19
40502;BME280;29631;49.168;9.848;2022-08-19T00:36:08;96152.09;;;27.35;83.46
40502;BME280;29631;49.168;9.848;2022-08-19T00:38:36;96158.75;;;27.37;82.97
40502;BME280;29631;49.168;9.848;2022-08-19T00:41:04;96132.19;;;27.31;83.14
40502;BME280;29631;49.168;9.848;2022-08-19T00:43:30;96124.53;;;27.24;83.35
40502;BME280;29631;49.168;9.848;2022-08-19T00:45:56;96135.69;;;27.23;84.16
40502;BME280;29631;49.168;9.848;2022-08-19T00:48:22;96137.16;;;27.20;83.32
40502;BME280;29631;49.168;9.848;2022-08-19T00:50:51;96122.97;;;27.15;83.67
40502;BME280;29631;49.168;9.848;2022-08-19T00:53:22;96115.63;;;27.24;83.54
40502;BME280;29631;49.168;9.848;2022-08-19T00:55:51;96102.41;;;27.14;83.80
40502;BME280;29631;49.168;9.848;2022-08-19T00:58:21;96123.56;;;27.29;83.80
40502;BME280;29631;49.168;9.848;2022-08-19T01:00:48;96110.84;;;27.21;83.83
40502;BME280;29631;49.168;9.848;2022-08-19T01:03:18;96122.00;;;27.19;83.96
40502;BME280;29631;49.168;9.848;2022-08-19T01:05:46;96143.03;;;27.22;83.80
40502;BME280;29631;49.168;9.848;2022-08-19T01:08:14;96130.34;;;27.06;83.77
40502;BME280;29631;49.168;9.848;2022-08-19T01:10:46;96163.75;;;27.18;83.82
40502;BME280;29631;49.168;9.848;2022-08-19T01:13:16;96148.13;;;27.07;83.97
40502;BME280;29631;49.168;9.848;2022-08-19T01:15:48;96128.09;;;26.91;84.02
40502;BME280;29631;49.168;9.848;2022-08-19T01:18:18;96165.81;;;27.05;84.14
40502;BME280;29631;49.168;9.848;2022-08-19T01:20:45;96151.66;;;26.91;83.88
40502;BME280;29631;49.168;9.848;2022-08-19T01:23:12;96157.69;;;26.96;84.01
40502;BME280;29631;49.168;9.848;2022-08-19T01:25:49;96149.75;;;27.00;84.28
40502;BME280;29631;49.168;9.848;2022-08-19T01:28:27;96137.81;;;27.01;84.40
40502;BME280;29631;49.168;9.848;2022-08-19T01:30:54;96139.41;;;27.02;84.09
40502;BME280;29631;49.168;9.848;2022-08-19T01:33:21;96141.31;;;27.01;84.18
40502;BME280;29631;49.168;9.848;2022-08-19T01:35:47;96147.19;;;27.03;84.22
40502;BME280;29631;49.168;9.848;2022-08-19T01:38:26;96133.50;;;26.91;84.03
40502;BME280;29631;49.168;9.848;2022-08-19T01:40:57;96141.44;;;26.96;84.12
40502;BME280;29631;49.168;9.848;2022-08-19T01:43:23;96128.88;;;26.92;84.49
40502;BME280;29631;49.168;9.848;2022-08-19T01:45:48;96130.97;;;26.86;84.21
40502;BME280;29631;49.168;9.848;2022-08-19T01:48:14;96143.38;;;26.87;84.21
40502;BME280;29631;49.168;9.848;2022-08-19T01:50:40;96141.13;;;26.81;84.15
40502;BME280;29631;49.168;9.848;2022-08-19T01:53:10;96150.03;;;26.81;84.49
40502;BME280;29631;49.168;9.848;2022-08-19T01:55:40;96135.56;;;26.77;84.57
40502;BME280;29631;49.168;9.848;2022-08-19T01:58:14;96153.22;;;26.83;84.87
40502;BME280;29631;49.168;9.848;2022-08-19T02:00:43;96137.78;;;26.75;83.98
40502;BME280;29631;49.168;9.848;2022-08-19T02:03:11;96132.09;;;26.77;84.12
40502;BME280;29631;49.168;9.848;2022-08-19T02:05:38;96129.81;;;26.79;84.34
40502;BME280;29631;49.168;9.848;2022-08-19T02:08:05;96144.63;;;26.81;84.42
40502;BME280;29631;49.168;9.848;2022-08-19T02:10:30;96139.56;;;26.71;84.40
40502;BME280;29631;49.168;9.848;2022-08-19T02:12:57;96142.75;;;26.73;84.16
40502;BME280;29631;49.168;9.848;2022-08-19T02:15:23;96157.22;;;26.77;84.52
40502;BME280;29631;49.168;9.848;2022-08-19T02:17:51;96137.94;;;26.70;84.43
40502;BME280;29631;49.168;9.848;2022-08-19T02:20:17;96158.16;;;26.73;84.30
40502;BME280;29631;49.168;9.848;2022-08-19T02:22:43;96159.91;;;26.77;84.21
40502;BME280;29631;49.168;9.848;2022-08-19T02:25:11;96151.31;;;26.75;84.53
40502;BME280;29631;49.168;9.848;2022-08-19T02:27:39;96150.06;;;26.73;84.45
40502;BME280;29631;49.168;9.848;2022-08-19T02:30:08;96154.84;;;26.67;84.66
40502;BME280;29631;49.168;9.848;2022-08-19T02:32:35;96148.78;;;26.62;84.59
40502;BME280;29631;49.168;9.848;2022-08-19T02:35:01;96148.78;;;26.53;84.39
40502;BME280;29631;49.168;9.848;2022-08-19T02:37:27;96182.53;;;26.64;84.28
40502;BME280;29631;49.168;9.848;2022-08-19T02:40:11;96179.66;;;26.52;84.48
40502;BME280;29631;49.168;9.848;2022-08-19T02:42:37;96170.72;;;26.43;84.45
40502;BME280;29631;49.168;9.848;2022-08-19T02:45:04;96190.78;;;26.51;84.76
40502;BME280;29631;49.168;9.848;2022-08-19T02:47:30;96183.47;;;26.51;84.79
40502;BME280;29631;49.168;9.848;2022-08-19T02:49:56;96180.91;;;26.46;84.65
40502;BME280;29631;49.168;9.848;2022-08-19T02:52:21;96161.16;;;26.38;84.65
40502;BME280;29631;49.168;9.848;2022-08-19T02:54:48;96171.97;;;26.46;85.02
40502;BME280;29631;49.168;9.848;2022-08-19T02:57:14;96170.09;;;26.46;84.95
40502;BME280;29631;49.168;9.848;2022-08-19T02:59:40;96172.97;;;26.42;85.03
40502;BME280;29631;49.168;9.848;2022-08-19T03:02:06;96169.28;;;26.38;84.95
40502;BME280;29631;49.168;9.848;2022-08-19T03:04:32;96180.59;;;26.40;84.81
40502;BME280;29631;49.168;9.848;2022-08-19T03:06:57;96185.34;;;26.42;84.79
40502;BME280;29631;49.168;9.848;2022-08-19T03:09:23;96184.88;;;26.41;85.15
40502;BME280;29631;49.168;9.848;2022-08-19T03:11:49;96162.25;;;26.37;85.00
40502;BME280;29631;49.168;9.848;2022-08-19T03:14:15;96175.19;;;26.40;84.92
40502;BME280;29631;49.168;9.848;2022-08-19T03:16:47;96181.53;;;26.43;85.19
40502;BME280;29631;49.168;9.848;2022-08-19T03:19:17;96161.78;;;26.35;85.43
40502;BME280;29631;49.168;9.848;2022-08-19T03:21:44;96168.16;;;26.39;85.32
40502;BME280;29631;49.168;9.848;2022-08-19T03:24:11;96185.34;;;26.42;85.28
40502;BME280;29631;49.168;9.848;2022-08-19T03:26:43;96173.56;;;26.39;85.23
40502;BME280;29631;49.168;9.848;2022-08-19T03:29:10;96161.78;;;26.35;85.28
40502;BME280;29631;49.168;9.848;2022-08-19T03:31:38;96152.84;;;26.26;85.64
40502;BME280;29631;49.168;9.848;2022-08-19T03:34:05;96167.81;;;26.32;85.37
40502;BME280;29631;49.168;9.848;2022-08-19T03:36:31;96152.50;;;26.27;85.44
40502;BME280;29631;49.168;9.848;2022-08-19T03:38:59;96159.19;;;26.30;85.26
40502;BME280;29631;49.168;9.848;2022-08-19T03:41:30;96157.78;;;26.32;85.46
40502;BME280;29631;49.168;9.848;2022-08-19T03:43:57;96148.88;;;26.32;85.15
40502;BME280;29631;49.168;9.848;2022-08-19T03:46:27;96135.19;;;26.28;85.51
40502;BME280;29631;49.168;9.848;2022-08-19T03:48:55;96133.28;;;26.29;85.11
40502;BME280;29631;49.168;9.848;2022-08-19T03:51:28;96137.09;;;26.28;85.68
40502;BME280;29631;49.168;9.848;2022-08-19T03:53:58;96157.16;;;26.35;85.84
40502;BME280;29631;49.168;9.848;2022-08-19T03:56:25;96149.03;;;26.27;85.45
40502;BME280;29631;49.168;9.848;2022-08-19T03:58:52;96155.38;;;26.31;85.41
40502;BME280;29631;49.168;9.848;2022-08-19T04:01:21;96155.06;;;26.24;85.67
40502;BME280;29631;49.168;9.848;2022-08-19T04:03:48;96164.16;;;26.28;85.20
40502;BME280;29631;49.168;9.848;2022-08-19T04:06:15;96172.44;;;26.31;85.74
40502;BME280;29631;49.168;9.848;2022-08-19T04:08:43;96173.34;;;26.18;85.62
40502;BME280;29631;49.168;9.848;2022-08-19T04:11:16;96188.31;;;26.24;86.16
40502;BME280;29631;49.168;9.848;2022-08-19T04:13:43;96187.66;;;26.19;85.66
40502;BME280;29631;49.168;9.848;2022-08-19T04:16:10;96194.16;;;26.18;86.16
40502;BME280;29631;49.168;9.848;2022-08-19T04:18:39;96186.22;;;26.13;86.35
40502;BME280;29631;49.168;9.848;2022-08-19T04:21:07;96186.03;;;26.09;86.10
40502;BME280;29631;49.168;9.848;2022-08-19T04:23:34;96190.00;;;26.12;86.10
40502;BME280;29631;49.168;9.848;2022-08-19T04:26:02;96182.84;;;26.07;86.08
40502;BME280;29631;49.168;9.848;2022-08-19T04:28:28;96170.75;;;26.05;86.50
40502;BME280;29631;49.168;9.848;2022-08-19T04:30:55;96166.59;;;25.99;86.08
40502;BME280;29631;49.168;9.848;2022-08-19T04:33:23;96166.13;;;25.97;86.50
40502;BME280;29631;49.168;9.848;2022-08-19T04:35:51;96170.13;;;25.99;86.21
40502;BME280;29631;49.168;9.848;2022-08-19T04:38:21;96167.25;;;25.96;86.44
40502;BME280;29631;49.168;9.848;2022-08-19T04:40:50;96167.72;;;25.98;86.72
40502;BME280;29631;49.168;9.848;2022-08-19T04:43:37;96161.34;;;25.94;86.80
40502;BME280;29631;49.168;9.848;2022-08-19T04:46:12;96163.56;;;25.92;86.92
40502;BME280;29631;49.168;9.848;2022-08-19T04:48:39;96155.44;;;25.92;86.69
40502;BME280;29631;49.168;9.848;2022-08-19T04:51:11;96167.25;;;25.96;87.05
40502;BME280;29631;49.168;9.848;2022-08-19T04:53:40;96165.16;;;25.93;86.81
40502;BME280;29631;49.168;9.848;2022-08-19T04:56:11;96157.38;;;25.91;86.96
40502;BME280;29631;49.168;9.848;2022-08-19T04:58:40;96163.44;;;25.97;87.05
40502;BME280;29631;49.168;9.848;2022-08-19T05:01:17;96180.13;;;25.99;86.82
40502;BME280;29631;49.168;9.848;2022-08-19T05:03:43;96179.16;;;25.95;86.54
40502;BME280;29631;49.168;9.848;2022-08-19T05:06:12;96177.56;;;25.94;86.75
40502;BME280;29631;49.168;9.848;2022-08-19T05:08:41;96187.75;;;25.97;86.93
40502;BME280;29631;49.168;9.848;2022-08-19T05:11:22;96200.13;;;25.98;86.95
40502;BME280;29631;49.168;9.848;2022-08-19T05:13:49;96173.84;;;25.81;87.18
40502;BME280;29631;49.168;9.848;2022-08-19T05:16:18;96203.34;;;26.00;87.18
40502;BME280;29631;49.168;9.848;2022-08-19T05:18:44;96212.88;;;25.97;87.27
40502;BME280;29631;49.168;9.848;2022-08-19T05:21:30;96210.78;;;25.94;87.05
40502;BME280;29631;49.168;9.848;2022-08-19T05:24:15;96216.34;;;25.98;86.86
40502;BME280;29631;49.168;9.848;2022-08-19T05:26:45;96218.59;;;25.96;86.93
40502;BME280;29631;49.168;9.848;2022-08-19T05:29:13;96232.75;;;26.01;87.16
40502;BME280;29631;49.168;9.848;2022-08-19T05:31:39;96230.53;;;26.03;87.10
40502;BME280;29631;49.168;9.848;2022-08-19T05:34:06;96212.84;;;25.89;87.35
40502;BME280;29631;49.168;9.848;2022-08-19T05:36:39;96237.38;;;26.01;87.20
40502;BME280;29631;49.168;9.848;2022-08-19T05:39:07;96236.75;;;26.04;87.22
40502;BME280;29631;49.168;9.848;2022-08-19T05:41:34;96246.94;;;26.07;87.46
40502;BME280;29631;49.168;9.848;2022-08-19T05:44:05;96245.34;;;26.06;87.72
40502;BME280;29631;49.168;9.848;2022-08-19T05:46:36;96231.19;;;26.00;87.40
40502;BME280;29631;49.168;9.848;2022-08-19T05:49:05;96246.94;;;26.07;87.43
40502;BME280;29631;49.168;9.848;2022-08-19T05:51:33;96250.13;;;26.09;87.30
40502;BME280;29631;49.168;9.848;2022-08-19T05:54:01;96235.00;;;25.99;87.59
40502;BME280;29631;49.168;9.848;2022-08-19T05:56:27;96260.94;;;26.09;87.56
40502;BME280;29631;49.168;9.848;2022-08-19T05:58:53;96254.72;;;26.08;87.39
40502;BME280;29631;49.168;9.848;2022-08-19T06:01:19;96260.94;;;26.09;87.56
40502;BME280;29631;49.168;9.848;2022-08-19T06:03:45;96266.69;;;26.16;87.85
40502;BME280;29631;49.168;9.848;2022-08-19T06:06:15;96248.34;;;26.04;88.03
40502;BME280;29631;49.168;9.848;2022-08-19T06:08:41;96259.34;;;26.08;87.92
40502;BME280;29631;49.168;9.848;2022-08-19T06:11:23;96261.09;;;26.04;87.90
40502;BME280;29631;49.168;9.848;2022-08-19T06:13:53;96257.88;;;26.02;87.78
40502;BME280;29631;49.168;9.848;2022-08-19T06:16:20;96261.56;;;26.06;87.79
40502;BME280;29631;49.168;9.848;2022-08-19T06:18:53;96262.38;;;26.06;87.98
40502;BME280;29631;49.168;9.848;2022-08-19T06:21:24;96268.56;;;26.07;87.72
40502;BME280;29631;49.168;9.848;2022-08-19T06:23:51;96270.66;;;26.10;88.17
40502;BME280;29631;49.168;9.848;2022-08-19T06:26:19;96266.81;;;26.11;88.04
40502;BME280;29631;49.168;9.848;2022-08-19T06:28:46;96259.34;;;26.08;88.10
40502;BME280;29631;49.168;9.848;2022-08-19T06:31:34;96259.94;;;26.05;87.88
40502;BME280;29631;49.168;9.848;2022-08-19T06:34:02;96251.38;;;26.03;88.09
40502;BME280;29631;49.168;9.848;2022-08-19T06:36:38;96244.38;;;26.02;88.34
40502;BME280;29631;49.168;9.848;2022-08-19T06:39:14;96242.78;;;26.01;88.59
40502;BME280;29631;49.168;9.848;2022-08-19T06:41:44;96224.59;;;25.93;88.15
40502;BME280;29631;49.168;9.848;2022-08-19T06:44:11;96237.19;;;25.97;88.36
40502;BME280;29631;49.168;9.848;2022-08-19T06:46:40;96232.56;;;25.98;88.33
40502;BME280;29631;49.168;9.848;2022-08-19T06:49:06;96214.44;;;25.90;88.71
40502;BME280;29631;49.168;9.848;2022-08-19T06:51:35;96236.91;;;26.07;88.51
40502;BME280;29631;49.168;9.848;2022-08-19T06:54:01;96232.75;;;26.01;88.41
40502;BME280;29631;49.168;9.848;2022-08-19T06:56:30;96231.34;;;26.04;88.28
40502;BME280;29631;49.168;9.848;2022-08-19T06:59:07;96255.34;;;26.05;88.34
40502;BME280;29631;49.168;9.848;2022-08-19T07:01:50;96254.69;;;26.00;88.70
40502;BME280;29631;49.168;9.848;2022-08-19T07:04:25;96254.50;;;25.96;88.58
40502;BME280;29631;49.168;9.848;2022-08-19T07:07:00;96267.13;;;26.09;88.68
40502;BME280;29631;49.168;9.848;2022-08-19T07:09:26;96285.63;;;26.16;87.91
40502;BME280;29631;49.168;9.848;2022-08-19T07:11:53;96290.41;;;26.19;88.92
40502;BME280;29631;49.168;9.848;2022-08-19T07:14:23;96281.94;;;26.12;88.57
40502;BME280;29631;49.168;9.848;2022-08-19T07:16:52;96278.78;;;26.18;88.55
40502;BME280;29631;49.168;9.848;2022-08-19T07:19:20;96283.38;;;26.18;88.80
40502;BME280;29631;49.168;9.848;2022-08-19T07:21:49;96270.75;;;26.05;88.77
40502;BME280;29631;49.168;9.848;2022-08-19T07:24:22;96280.69;;;26.18;88.43
40502;BME280;29631;49.168;9.848;2022-08-19T07:26:50;96287.69;;;26.19;88.89
40502;BME280;29631;49.168;9.848;2022-08-19T07:29:17;96292.66;;;26.25;88.48
40502;BME280;29631;49.168;9.848;2022-08-19T07:31:43;96292.84;;;26.29;88.58
40502;BME280;29631;49.168;9.848;2022-08-19T07:34:11;96267.31;;;26.13;88.50
40502;BME280;29631;49.168;9.848;2022-08-19T07:36:40;96273.72;;;26.17;88.77
40502;BME280;29631;49.168;9.848;2022-08-19T07:39:13;96280.56;;;26.23;88.73
40502;BME280;29631;49.168;9.848;2022-08-19T07:41:40;96279.44;;;26.24;88.57
40502;BME280;29631;49.168;9.848;2022-08-19T07:44:07;96285.84;;;26.28;88.74
40502;BME280;29631;49.168;9.848;2022-08-19T07:46:37;96281.03;;;26.25;88.80
40502;BME280;29631;49.168;9.848;2022-08-19T07:49:05;96283.09;;;26.19;88.80
40502;BME280;29631;49.168;9.848;2022-08-19T07:51:31;96283.09;;;26.19;89.02
40502;BME280;29631;49.168;9.848;2022-08-19T07:53:57;96288.78;;;26.18;89.05
40502;BME280;29631;49.168;9.848;2022-08-19T07:56:23;96297.41;;;26.20;88.88
40502;BME280;29631;49.168;9.848;2022-08-19T07:58:51;96301.22;;;26.19;89.43
40502;BME280;29631;49.168;9.848;2022-08-19T08:01:23;96312.06;;;26.27;89.02
40502;BME280;29631;49.168;9.848;2022-08-19T08:03:52;96301.06;;;26.24;88.99
40502;BME280;29631;49.168;9.848;2022-08-19T08:06:37;96300.75;;;26.17;88.98
40502;BME280;29631;49.168;9.848;2022-08-19T08:09:26;96298.34;;;26.15;88.93
40502;BME280;29631;49.168;9.848;2022-08-19T08:11:59;96311.88;;;26.24;89.08
40502;BME280;29631;49.168;9.848;2022-08-19T08:14:34;96316.69;;;26.27;88.83
40502;BME280;29631;49.168;9.848;2022-08-19T08:17:03;96305.19;;;26.21;89.18
40502;BME280;29631;49.168;9.848;2022-08-19T08:19:29;96316.69;;;26.27;89.13
40502;BME280;29631;49.168;9.848;2022-08-19T08:21:58;96310.31;;;26.23;88.75
40502;BME280;29631;49.168;9.848;2022-08-19T08:24:26;96312.88;;;26.28;89.00
40502;BME280;29631;49.168;9.848;2022-08-19T08:26:53;96326.75;;;26.35;89.47
40502;BME280;29631;49.168;9.848;2022-08-19T08:29:18;96321.63;;;26.33;88.77
40502;BME280;29631;49.168;9.848;2022-08-19T08:31:46;96305.72;;;26.32;89.25
40502;BME280;29631;49.168;9.848;2022-08-19T08:34:14;96305.91;;;26.35;89.20
40502;BME280;29631;49.168;9.848;2022-08-19T08:36:43;96302.88;;;26.37;89.03
40502;BME280;29631;49.168;9.848;2022-08-19T08:39:18;96299.09;;;26.38;89.18
40502;BME280;29631;49.168;9.848;2022-08-19T08:44:40;96305.94;;;26.43;89.21
40502;BME280;29631;49.168;9.848;2022-08-19T08:47:15;96295.78;;;26.41;89.36
40502;BME280;29631;49.168;9.848;2022-08-19T08:49:55;96304.34;;;26.42;89.63
40502;BME280;29631;49.168;9.848;2022-08-19T08:52:30;96312.97;;;26.44;89.58
40502;BME280;29631;49.168;9.848;2022-08-19T08:55:05;96303.41;;;26.39;89.30
40502;BME280;29631;49.168;9.848;2022-08-19T09:00:15;96310.94;;;26.50;89.43
40502;BME280;29631;49.168;9.848;2022-08-19T09:02:43;96302.63;;;26.46;89.38
40502;BME280;29631;49.168;9.848;2022-08-19T09:05:10;96313.16;;;26.56;89.58
40502;BME280;29631;49.168;9.848;2022-08-19T09:10:44;96318.28;;;26.58;90.21
40502;BME280;29631;49.168;9.848;2022-08-19T09:16:16;96311.59;;;26.64;90.04
40502;BME280;29631;49.168;9.848;2022-08-19T09:18:52;96306.97;;;26.64;89.79
40502;BME280;29631;49.168;9.848;2022-08-19T09:21:20;96312.25;;;26.69;89.70
40502;BME280;29631;49.168;9.848;2022-08-19T09:23:48;96302.69;;;26.63;89.61
40502;BME280;29631;49.168;9.848;2022-08-19T09:26:19;96321.34;;;26.73;90.12
40502;BME280;29631;49.168;9.848;2022-08-19T09:28:48;96319.44;;;26.74;89.91
40502;BME280;29631;49.168;9.848;2022-08-19T09:31:18;96313.22;;;26.73;89.88
40502;BME280;29631;49.168;9.848;2022-08-19T09:33:45;96313.34;;;26.68;89.77
40502;BME280;29631;49.168;9.848;2022-08-19T09:36:16;96311.13;;;26.70;89.91
40502;BME280;29631;49.168;9.848;2022-08-19T09:38:42;96312.91;;;26.75;90.09
40502;BME280;29631;49.168;9.848;2022-08-19T09:41:20;96316.88;;;26.77;90.01
40502;BME280;29631;49.168;9.848;2022-08-19T09:43:49;96328.06;;;26.84;90.14
40502;BME280;29631;49.168;9.848;2022-08-19T09:46:19;96319.59;;;26.77;89.65
40502;BME280;29631;49.168;9.848;2022-08-19T09:48:48;96326.28;;;26.80;89.53
40502;BME280;29631;49.168;9.848;2022-08-19T09:51:24;96330.25;;;26.82;89.58
40502;BME280;29631;49.168;9.848;2022-08-19T09:53:50;96327.44;;;26.87;89.82
40502;BME280;29631;49.168;9.848;2022-08-19T09:56:20;96324.56;;;26.84;90.02
40502;BME280;29631;49.168;9.848;2022-08-19T09:58:47;96301.28;;;26.74;89.94
40502;BME280;29631;49.168;9.848;2022-08-19T10:01:23;96321.38;;;26.82;90.38
40502;BME280;29631;49.168;9.848;2022-08-19T10:03:53;96321.03;;;26.83;90.52
40502;BME280;29631;49.168;9.848;2022-08-19T10:06:22;96323.41;;;26.85;90.46
40502;BME280;29631;49.168;9.848;2022-08-19T10:08:49;96320.72;;;26.85;90.70
40502;BME280;29631;49.168;9.848;2022-08-19T10:11:15;96336.34;;;26.96;90.83
40502;BME280;29631;49.168;9.848;2022-08-19T10:13:43;96318.66;;;26.90;90.84
40502;BME280;29631;49.168;9.848;2022-08-19T10:16:17;96322.19;;;26.91;91.48
40502;BME280;29631;49.168;9.848;2022-08-19T10:18:44;96324.56;;;26.92;91.78
40502;BME280;29631;49.168;9.848;2022-08-19T10:21:23;96326.00;;;26.90;92.59
40502;BME280;29631;49.168;9.848;2022-08-19T10:23:52;96311.19;;;26.87;92.25
40502;BME280;29631;49.168;9.848;2022-08-19T10:26:28;96316.59;;;26.87;92.88
40502;BME280;29631;49.168;9.848;2022-08-19T10:28:55;96323.59;;;26.88;93.14
40502;BME280;29631;49.168;9.848;2022-08-19T10:31:28;96315.63;;;26.83;92.88
40502;BME280;29631;49.168;9.848;2022-08-19T10:33:56;96324.91;;;26.91;92.90
40502;BME280;29631;49.168;9.848;2022-08-19T10:36:32;96302.41;;;26.82;93.43
40502;BME280;29631;49.168;9.848;2022-08-19T10:39:02;96313.75;;;26.92;93.46
40502;BME280;29631;49.168;9.848;2022-08-19T10:41:33;96322.31;;;26.94;93.61
40502;BME280;29631;49.168;9.848;2022-08-19T10:44:03;96309.94;;;26.93;93.66
40502;BME280;29631;49.168;9.848;2022-08-19T10:46:32;96323.31;;;26.98;93.56
40502;BME280;29631;49.168;9.848;2022-08-19T10:49:00;96322.06;;;27.04;93.70
40502;BME280;29631;49.168;9.848;2022-08-19T10:51:27;96319.97;;;27.01;93.80
40502;BME280;29631;49.168;9.848;2022-08-19T10:54:12;96314.09;;;26.99;93.82
40502;BME280;29631;49.168;9.848;2022-08-19T10:56:37;96319.84;;;27.06;94.35
40502;BME280;29631;49.168;9.848;2022-08-19T10:59:21;96325.41;;;27.01;94.35
40502;BME280;29631;49.168;9.848;2022-08-19T11:01:48;96319.53;;;26.99;94.61
40502;BME280;29631;49.168;9.848;2022-08-19T11:04:15;96290.50;;;26.91;94.61
40502;BME280;29631;49.168;9.848;2022-08-19T11:06:44;96313.91;;;26.96;94.54
40502;BME280;29631;49.168;9.848;2022-08-19T11:09:13;96303.88;;;26.96;94.22
40502;BME280;29631;49.168;9.848;2022-08-19T11:11:39;96310.59;;;26.99;94.79
40502;BME280;29631;49.168;9.848;2022-08-19T11:14:16;96315.50;;;26.97;94.72
40502;BME280;29631;49.168;9.848;2022-08-19T11:16:44;96315.03;;;26.95;94.33
40502;BME280;29631;49.168;9.848;2022-08-19T11:19:12;96322.81;;;26.96;94.29
40502;BME280;29631;49.168;9.848;2022-08-19T11:21:42;96311.19;;;26.87;94.52
40502;BME280;29631;49.168;9.848;2022-08-19T11:24:20;96313.56;;;26.89;94.55
40502;BME280;29631;49.168;9.848;2022-08-19T11:26:48;96308.00;;;26.85;94.62
40502;BME280;29631;49.168;9.848;2022-08-19T11:29:15;96315.97;;;26.90;94.79
40502;BME280;29631;49.168;9.848;2022-08-19T11:31:45;96321.22;;;26.87;95.30
40502;BME280;29631;49.168;9.848;2022-08-19T11:34:17;96308.63;;;26.82;95.35
40502;BME280;29631;49.168;9.848;2022-08-19T11:36:45;96321.03;;;26.83;94.91
40502;BME280;29631;49.168;9.848;2022-08-19T11:39:14;96325.19;;;26.89;95.49
40502;BME280;29631;49.168;9.848;2022-08-19T11:41:40;96318.50;;;26.87;95.28
40502;BME280;29631;49.168;9.848;2022-08-19T11:44:07;96310.84;;;26.80;95.51
40502;BME280;29631;49.168;9.848;2022-08-19T11:46:34;96329.81;;;26.89;95.38
40502;BME280;29631;49.168;9.848;2022-08-19T11:49:02;96329.66;;;26.85;95.44
40502;BME280;29631;49.168;9.848;2022-08-19T11:51:29;96315.28;;;26.76;95.48
40502;BME280;29631;49.168;9.848;2022-08-19T11:53:57;96319.75;;;26.72;95.90
40502;BME280;29631;49.168;9.848;2022-08-19T11:56:25;96325.16;;;26.72;96.04
40502;BME280;29631;49.168;9.848;2022-08-19T11:58:52;96323.38;;;26.68;95.93
40502;BME280;29631;49.168;9.848;2022-08-19T12:01:21;96316.84;;;26.60;96.75
40502;BME280;29631;49.168;9.848;2022-08-19T12:03:50;96318.28;;;26.58;96.78
40502;BME280;29631;49.168;9.848;2022-08-19T12:06:24;96321.91;;;26.53;97.19
40502;BME280;29631;49.168;9.848;2022-08-19T12:08:51;96327.78;;;26.55;96.94
40502;BME280;29631;49.168;9.848;2022-08-19T12:11:17;96310.25;;;26.44;97.30
40502;BME280;29631;49.168;9.848;2022-08-19T12:13:43;96330.34;;;26.52;97.67
40502;BME280;29631;49.168;9.848;2022-08-19T12:16:25;96320.59;;;26.42;97.98
40502;BME280;29631;49.168;9.848;2022-08-19T12:18:53;96323.78;;;26.44;98.00
40502;BME280;29631;49.168;9.848;2022-08-19T12:21:23;96308.56;;;26.27;98.19
40502;BME280;29631;49.168;9.848;2022-08-19T12:23:51;96329.66;;;26.38;98.67
40502;BME280;29631;49.168;9.848;2022-08-19T12:26:17;96323.88;;;26.31;98.32
40502;BME280;29631;49.168;9.848;2022-08-19T12:28:43;96341.88;;;26.36;98.53
40502;BME280;29631;49.168;9.848;2022-08-19T12:31:10;96336.09;;;26.29;98.99
40502;BME280;29631;49.168;9.848;2022-08-19T12:33:40;96329.88;;;26.28;98.90
40502;BME280;29631;49.168;9.848;2022-08-19T12:36:09;96338.50;;;26.30;98.96
40502;BME280;29631;49.168;9.848;2022-08-19T12:38:35;96329.06;;;26.19;98.75
40502;BME280;29631;49.168;9.848;2022-08-19T12:41:02;96334.94;;;26.21;98.73
40502;BME280;29631;49.168;9.848;2022-08-19T12:43:36;96340.81;;;26.15;99.28
40502;BME280;29631;49.168;9.848;2022-08-19T12:46:04;96330.22;;;26.05;99.35
40502;BME280;29631;49.168;9.848;2022-08-19T12:48:32;96320.75;;;25.85;99.46
40502;BME280;29631;49.168;9.848;2022-08-19T12:50:57;96335.41;;;25.93;99.49
40502;BME280;29631;49.168;9.848;2022-08-19T12:53:24;96328.72;;;25.90;99.52
40502;BME280;29631;49.168;9.848;2022-08-19T12:55:57;96347.69;;;25.99;99.94
40502;BME280;29631;49.168;9.848;2022-08-19T12:58:25;96345.50;;;26.01;100.00
40502;BME280;29631;49.168;9.848;2022-08-19T13:00:51;96348.88;;;26.06;99.63
40502;BME280;29631;49.168;9.848;2022-08-19T13:03:17;96341.91;;;26.14;100.00
40502;BME280;29631;49.168;9.848;2022-08-19T13:05:43;96346.03;;;26.11;99.77
40502;BME280;29631;49.168;9.848;2022-08-19T13:08:09;96338.69;;;26.12;99.81
40502;BME280;29631;49.168;9.848;2022-08-19T13:10:35;96345.88;;;26.16;99.46
40502;BME280;29631;49.168;9.848;2022-08-19T13:13:07;96331.59;;;26.16;99.35
40502;BME280;29631;49.168;9.848;2022-08-19T13:15:37;96321.88;;;26.15;99.28
40502;BME280;29631;49.168;9.848;2022-08-19T13:18:05;96305.78;;;26.10;98.77
40502;BME280;29631;49.168;9.848;2022-08-19T13:20:31;96299.53;;;26.01;98.67
40502;BME280;29631;49.168;9.848;2022-08-19T13:22:57;96299.22;;;26.02;98.86